createdAt,value
2023-02-27T00:04:22.975Z,2.65
2023-02-27T00:09:24.518Z,2.60
2023-02-27T00:14:26.197Z,2.51
2023-02-27T00:19:27.811Z,2.49
2023-02-27T00:24:29.379Z,2.48
2023-02-27T00:29:30.911Z,2.31
2023-02-27T00:34:32.512Z,2.20
2023-02-27T00:39:34.220Z,2.14
2023-02-27T00:44:35.797Z,2.09
2023-02-27T00:49:37.332Z,2.05
2023-02-27T00:54:38.891Z,1.98
2023-02-27T00:59:40.401Z,1.90
2023-02-27T01:04:41.933Z,1.75
2023-02-27T01:09:43.647Z,1.63
2023-02-27T01:14:45.176Z,1.41
2023-02-27T01:19:46.761Z,1.32
2023-02-27T01:24:48.298Z,1.20
2023-02-27T01:29:49.844Z,1.14
2023-02-27T01:34:51.331Z,1.06
2023-02-27T01:39:52.958Z,0.95
2023-02-27T01:45:12.812Z,0.95
2023-02-27T01:50:15.938Z,0.98
2023-02-27T01:55:17.609Z,1.04
2023-02-27T02:00:19.883Z,1.01
2023-02-27T02:05:22.913Z,0.97
2023-02-27T02:10:25.727Z,0.93
2023-02-27T02:15:34.003Z,0.92
2023-02-27T02:21:03.329Z,0.81
2023-02-27T02:26:24.928Z,0.76
2023-02-27T02:32:14.468Z,0.71
2023-02-27T02:37:37.083Z,0.58
2023-02-27T02:43:06.062Z,0.45
2023-02-27T02:48:20.608Z,0.39
2023-02-27T02:53:37.116Z,0.36
2023-02-27T02:58:46.324Z,0.35
2023-02-27T03:03:59.253Z,0.35
2023-02-27T03:09:09.007Z,0.30
2023-02-27T03:14:21.722Z,0.23
2023-02-27T03:19:27.817Z,0.13
2023-02-27T03:24:39.795Z,0.08
2023-02-27T03:30:10.993Z,-0.04
2023-02-27T03:35:12.845Z,0.02
2023-02-27T03:40:35.342Z,0.01
2023-02-27T03:45:48.365Z,-0.04
2023-02-27T03:50:49.963Z,-0.17
2023-02-27T03:55:53.473Z,-0.22
2023-02-27T04:00:55.510Z,-0.25
2023-02-27T04:06:17.012Z,-0.34
2023-02-27T04:11:34.454Z,-0.31
2023-02-27T04:16:59.395Z,-0.29
2023-02-27T04:22:19.072Z,-0.41
2023-02-27T04:27:35.839Z,-0.54
2023-02-27T04:32:40.135Z,-0.60
2023-02-27T04:38:13.709Z,-0.69
2023-02-27T04:43:16.593Z,-0.67
2023-02-27T04:48:26.269Z,-0.56
2023-02-27T04:53:43.347Z,-0.45
2023-02-27T04:58:54.830Z,-0.31
2023-02-27T05:04:00.312Z,-0.32
2023-02-27T05:09:20.965Z,-0.39
2023-02-27T05:14:31.568Z,-0.42
2023-02-27T05:19:34.597Z,-0.35
2023-02-27T05:24:44.471Z,-0.43
2023-02-27T05:29:50.588Z,-0.44
2023-02-27T05:35:00.530Z,-0.47
2023-02-27T05:40:08.444Z,-0.44
2023-02-27T05:45:16.689Z,-0.37
2023-02-27T05:50:25.189Z,-0.26
2023-02-27T05:55:33.793Z,-0.17
2023-02-27T06:00:41.313Z,-0.04
2023-02-27T06:05:43.754Z,0.20
2023-02-27T06:10:46.205Z,0.19
2023-02-27T06:15:48.565Z,0.21
2023-02-27T06:20:50.666Z,0.28
2023-02-27T06:25:52.235Z,0.31
2023-02-27T06:30:55.339Z,0.29
2023-02-27T06:35:57.003Z,0.25
2023-02-27T06:40:58.980Z,0.25
2023-02-27T06:46:01.015Z,0.08
2023-02-27T06:51:03.583Z,-0.04
2023-02-27T06:56:05.674Z,0.00
2023-02-27T07:01:07.273Z,0.03
2023-02-27T07:06:08.901Z,0.06
2023-02-27T07:11:10.383Z,0.04
2023-02-27T07:16:11.946Z,0.00
2023-02-27T07:21:15.352Z,0.11
2023-02-27T07:26:16.898Z,0.25
2023-02-27T07:31:18.456Z,0.42
2023-02-27T07:36:20.054Z,0.68
2023-02-27T07:41:30.392Z,1.00
2023-02-27T07:46:32.910Z,1.27
2023-02-27T07:51:34.377Z,1.64
2023-02-27T07:56:37.099Z,2.14
2023-02-27T08:01:38.646Z,2.48
2023-02-27T08:06:40.422Z,2.78
2023-02-27T08:11:42.026Z,2.99
2023-02-27T08:16:43.593Z,3.22
2023-02-27T08:21:45.092Z,3.29
2023-02-27T08:26:46.608Z,3.51
2023-02-27T08:31:48.238Z,3.73
2023-02-27T08:36:49.787Z,3.78
2023-02-27T08:41:52.749Z,3.84
2023-02-27T08:46:54.255Z,3.89
2023-02-27T08:51:55.763Z,3.97
2023-02-27T08:56:57.789Z,3.90
2023-02-27T09:01:59.996Z,3.79
2023-02-27T09:07:01.584Z,4.02
2023-02-27T09:12:03.102Z,4.00
2023-02-27T09:17:04.579Z,4.31
2023-02-27T09:22:06.080Z,4.49
2023-02-27T09:27:07.642Z,4.33
2023-02-27T09:32:09.565Z,4.23
2023-02-27T09:37:11.156Z,4.30
2023-02-27T09:42:19.291Z,4.66
2023-02-27T09:47:29.903Z,4.76
2023-02-27T09:52:34.415Z,4.88
2023-02-27T09:57:41.967Z,5.16
2023-02-27T10:02:53.113Z,5.21
2023-02-27T10:08:13.175Z,5.03
2023-02-27T10:13:57.214Z,5.26
2023-02-27T10:19:06.165Z,5.54
2023-02-27T10:24:23.940Z,5.49
2023-02-27T10:29:31.741Z,5.36
2023-02-27T10:34:34.051Z,5.51
2023-02-27T10:39:53.390Z,5.60
2023-02-27T10:44:56.116Z,5.85
2023-02-27T10:50:00.284Z,5.51
2023-02-27T10:55:19.682Z,5.24
2023-02-27T11:00:45.638Z,5.71
2023-02-27T11:05:54.772Z,5.93
2023-02-27T11:11:27.654Z,5.93
2023-02-27T11:16:52.088Z,5.73
2023-02-27T11:22:02.393Z,5.75
2023-02-27T11:27:17.905Z,5.56
2023-02-27T11:32:20.993Z,5.89
2023-02-27T11:37:35.256Z,6.10
2023-02-27T11:42:42.071Z,5.94
2023-02-27T11:47:51.277Z,5.95
2023-02-27T11:53:09.849Z,5.88
2023-02-27T11:58:17.733Z,5.80
2023-02-27T12:03:31.129Z,6.03
2023-02-27T12:08:42.768Z,5.97
2023-02-27T12:13:51.715Z,5.98
2023-02-27T12:19:16.915Z,6.12
2023-02-27T12:24:24.868Z,6.19
2023-02-27T12:29:35.900Z,6.10
2023-02-27T12:34:49.380Z,6.03
2023-02-27T12:39:54.205Z,6.01
2023-02-27T12:44:55.684Z,6.21
2023-02-27T12:50:05.446Z,6.23
2023-02-27T12:55:31.096Z,5.81
2023-02-27T13:01:01.057Z,5.65
2023-02-27T13:06:14.524Z,5.76
2023-02-27T13:11:31.474Z,5.96
2023-02-27T13:16:41.286Z,6.19
2023-02-27T13:21:55.491Z,6.29
2023-02-27T13:27:15.805Z,6.39
2023-02-27T13:32:44.830Z,6.38
2023-02-27T13:38:05.386Z,6.01
2023-02-27T13:43:46.409Z,6.02
2023-02-27T13:48:54.476Z,6.08
2023-02-27T13:54:14.211Z,5.97
2023-02-27T13:59:29.981Z,5.76
2023-02-27T14:04:39.480Z,5.63
2023-02-27T14:09:45.056Z,5.59
2023-02-27T14:14:50.236Z,5.84
2023-02-27T14:19:57.024Z,6.02
2023-02-27T14:25:06.609Z,6.17
2023-02-27T14:30:25.335Z,6.11
2023-02-27T14:35:29.057Z,6.32
2023-02-27T14:40:37.988Z,6.26
2023-02-27T14:45:39.680Z,6.18
2023-02-27T14:50:41.668Z,5.91
2023-02-27T14:55:53.847Z,5.99
2023-02-27T15:01:08.695Z,6.13
2023-02-27T15:06:20.933Z,5.90
2023-02-27T15:11:24.577Z,5.74
2023-02-27T15:16:26.383Z,5.58
2023-02-27T15:21:31.784Z,5.92
2023-02-27T15:26:39.833Z,6.10
2023-02-27T15:31:45.359Z,6.09
2023-02-27T15:36:57.426Z,5.70
2023-02-27T15:42:02.960Z,5.76
2023-02-27T15:47:06.110Z,5.68
2023-02-27T15:52:24.174Z,5.66
2023-02-27T15:57:25.867Z,5.65
2023-02-27T16:02:39.334Z,5.54
2023-02-27T16:07:43.088Z,5.33
2023-02-27T16:12:44.968Z,5.32
2023-02-27T16:18:06.675Z,5.44
2023-02-27T16:23:21.025Z,5.51
2023-02-27T16:28:22.540Z,5.48
2023-02-27T16:33:25.092Z,5.35
2023-02-27T16:38:26.620Z,5.31
2023-02-27T16:43:28.173Z,5.27
2023-02-27T16:48:29.674Z,5.28
2023-02-27T16:53:31.225Z,5.30
2023-02-27T16:58:32.754Z,5.22
2023-02-27T17:03:34.761Z,5.16
2023-02-27T17:08:36.293Z,5.11
2023-02-27T17:13:37.819Z,5.07
2023-02-27T17:18:39.364Z,5.04
2023-02-27T17:23:40.890Z,5.04
2023-02-27T17:28:42.382Z,5.05
2023-02-27T17:33:44.721Z,5.06
2023-02-27T17:38:46.277Z,5.00
2023-02-27T17:43:53.811Z,4.92
2023-02-27T17:48:59.970Z,4.80
2023-02-27T17:54:04.182Z,4.67
2023-02-27T17:59:07.638Z,4.76
2023-02-27T18:04:11.546Z,4.87
2023-02-27T18:09:13.049Z,4.99
2023-02-27T18:14:14.540Z,5.03
2023-02-27T18:19:16.797Z,5.08
2023-02-27T18:24:18.378Z,4.89
2023-02-27T18:29:19.969Z,4.82
2023-02-27T18:34:22.678Z,4.68
2023-02-27T18:39:24.254Z,4.56
2023-02-27T18:44:25.788Z,4.46
2023-02-27T18:49:27.320Z,4.32
2023-02-27T18:54:29.547Z,4.25
2023-02-27T18:59:31.083Z,4.16
2023-02-27T19:04:33.471Z,4.12
2023-02-27T19:09:34.985Z,4.06
2023-02-27T19:14:40.275Z,4.06
2023-02-27T19:19:41.806Z,3.95
2023-02-27T19:24:44.463Z,3.90
2023-02-27T19:29:46.025Z,3.89
2023-02-27T19:34:47.512Z,3.87
2023-02-27T19:39:48.991Z,3.88
2023-02-27T19:44:50.591Z,3.83
2023-02-27T19:49:52.149Z,3.79
2023-02-27T19:54:54.378Z,3.76
2023-02-27T19:59:55.894Z,3.73
2023-02-27T20:04:57.680Z,3.74
2023-02-27T20:09:59.288Z,3.74
2023-02-27T20:15:08.156Z,3.67
2023-02-27T20:20:10.663Z,3.64
2023-02-27T20:25:12.660Z,3.62
2023-02-27T20:30:14.209Z,3.54
2023-02-27T20:35:15.733Z,3.56
2023-02-27T20:40:17.300Z,3.58
2023-02-27T20:45:18.810Z,3.51
2023-02-27T20:50:20.326Z,3.44
2023-02-27T20:55:21.833Z,3.48
2023-02-27T21:00:25.344Z,3.45
2023-02-27T21:05:26.864Z,3.41
2023-02-27T21:10:28.340Z,3.37
2023-02-27T21:15:31.145Z,3.37
2023-02-27T21:20:32.616Z,3.36
2023-02-27T21:25:34.181Z,3.27
2023-02-27T21:30:36.264Z,3.17
2023-02-27T21:35:37.806Z,3.03
2023-02-27T21:40:39.488Z,2.94
2023-02-27T21:45:46.173Z,2.87
2023-02-27T21:50:48.903Z,2.82
2023-02-27T21:55:50.708Z,2.84
2023-02-27T22:00:52.270Z,2.90
2023-02-27T22:05:53.793Z,2.89
2023-02-27T22:10:57.370Z,2.94
2023-02-27T22:16:05.342Z,3.03
2023-02-27T22:21:10.179Z,3.14
2023-02-27T22:26:14.382Z,3.13
2023-02-27T22:31:18.968Z,3.27
2023-02-27T22:36:26.627Z,3.33
2023-02-27T22:41:31.165Z,3.42
2023-02-27T22:46:35.927Z,3.47
2023-02-27T22:51:37.583Z,3.52
2023-02-27T22:56:39.377Z,3.56
2023-02-27T23:01:41.481Z,3.58
2023-02-27T23:06:43.991Z,3.62
2023-02-27T23:11:46.091Z,3.66
2023-02-27T23:16:48.038Z,3.67
2023-02-27T23:21:49.633Z,3.70
2023-02-27T23:26:52.404Z,3.73
2023-02-27T23:31:54.045Z,3.73
2023-02-27T23:36:55.588Z,3.73
2023-02-27T23:41:57.072Z,3.79
2023-02-27T23:46:58.554Z,3.77
2023-02-27T23:52:00.102Z,3.78
2023-02-27T23:57:01.576Z,3.81
